Santa Rosa — A8ZS7 — position and weather

sailwx.info

Track history (hours):
 
Tides and Currents Weather Stations Pressure Air Temp Water Temp Dewpoint Dewpoint Depression Visibility Wind Speed Wind Dir Waves Ship Positions

Santa Rosa

Last reported at 2014-Oct-16 07:33 UTC. Time now 2014-Oct-20 09:51 UTC.
Position N 30°23' E 122°53'.

Length 300 m; draft 7.9 m.

Type: Ship (hazmat cat D). MMSI: 636092266.

Date/timePositionNaut miles runAvg speedWind from/ knotsBaromVisibWave heightAir tempDewpointWater temp
2014-Oct-16 07:33N 30°23' E 122°53'1413.8
2014-Oct-16 06:33N 30°28' E 122°38'1414.2
2014-Oct-16 05:33N 30°32' E 122°23'1211.5
2014-Oct-16 04:33N 30°34' E 122°09'6 6.2
2014-Oct-16 03:33N 30°38' E 122°03'0 0.0
2014-Oct-16 02:33N 30°38' E 122°03'0 0.0
2014-Oct-15 06:32N 30°37' E 122°03'1 0.7
2014-Oct-15 05:30N 30°37' E 122°04'9 9.3
2014-Oct-15 04:33N 30°34' E 122°13'1211.8
2014-Oct-15 03:32N 30°32' E 122°27'1111.0
2014-Oct-15 02:33N 30°30' E 122°39'1111.1
2014-Oct-15 01:33N 30°24' E 122°50'40011.8
2014-Oct-13 15:29N 24°32' E 119°15'5513.8
2014-Oct-13 11:32N 23°59' E 118°28'1313.3
2014-Oct-13 10:32N 23°51' E 118°16'1412.9
2014-Oct-13 09:27N 23°43' E 118°03'1412.4
2014-Oct-13 08:19N 23°34' E 117°52'1113.5
2014-Oct-13 07:32N 23°28' E 117°42'21113.2
2014-Oct-12 15:31N 22°19' E 114°05'53910.5
2014-Oct-10 12:00N 13°30' E 112°18'20717.2 010 / 121006.7 5.4 29.522.227.0
2014-Oct-10 00:00N 10°36' E 110°24'20617.1 350 / 121009.3 5.4 27.021.727.0
2014-Oct-09 12:00N 07°48' E 108°24'20817.3 020 / 41009.610.8 28.022.027.0
2014-Oct-09 00:00N 04°54' E 106°30'26916.4 300 / 71011.0 5.4 28.524.928.0
2014-Oct-08 07:33N 01°13' E 103°56'1010.3
2014-Oct-08 06:33N 01°15' E 103°46'2 1.7
2014-Oct-08 05:33N 01°17' E 103°45'0 0.0
2014-Oct-08 04:32N 01°17' E 103°45'0 0.0
2014-Oct-08 03:32N 01°17' E 103°45'0 0.0
2014-Oct-08 02:32N 01°17' E 103°45'0 0.0
2014-Oct-08 01:32N 01°17' E 103°45'0 0.0
2014-Oct-08 00:32N 01°17' E 103°45'0 0.0
2014-Oct-07 23:32N 01°17' E 103°45'0 0.0
2014-Oct-07 22:32N 01°17' E 103°45'0 0.0
2014-Oct-07 21:32N 01°17' E 103°45'0 0.0
2014-Oct-07 20:32N 01°17' E 103°45'0 0.0
2014-Oct-07 19:32N 01°17' E 103°45'0 0.0
2014-Oct-07 18:32N 01°17' E 103°45'0 0.0
2014-Oct-07 17:32N 01°17' E 103°45'0 0.0
2014-Oct-07 16:32N 01°17' E 103°45'0 0.0
2014-Oct-07 15:32N 01°17' E 103°45'0 0.0
2014-Oct-07 14:32N 01°17' E 103°45'0 0.0
2014-Oct-07 13:32N 01°17' E 103°45'0 0.0
2014-Oct-07 12:32N 01°17' E 103°45'0 0.0
2014-Oct-07 11:32N 01°17' E 103°45'0 0.0
2014-Oct-07 10:32N 01°17' E 103°45'0 0.0
2014-Oct-07 09:32N 01°17' E 103°45'0 0.0
2014-Oct-07 08:32N 01°17' E 103°45'0 0.0
2014-Oct-07 07:33N 01°17' E 103°45'2 2.3
2014-Oct-07 06:33N 01°15' E 103°46'7 6.7
2014-Oct-07 05:33N 01°12' E 103°40'7 6.9
2014-Oct-07 04:33N 01°11' E 103°33'8 7.9
2014-Oct-07 03:33N 01°12' E 103°25'  
Track history (hours):
 
Tides and Currents Weather Stations Pressure Air Temp Water Temp Dewpoint Dewpoint Depression Visibility Wind Speed Wind Dir Waves Ship Positions

Santa Rosa

Last reported at 2014-Oct-16 07:33 UTC. Time now 2014-Oct-20 09:51 UTC.
Position N 30°23' E 122°53'.

Length 300 m; draft 7.9 m.

Type: Ship (hazmat cat D). MMSI: 636092266.

Date/timePositionNaut miles runAvg speedWind from/ knotsBaromVisibWave heightAir tempDewpointWater temp
2014-Oct-16 07:33N 30°23' E 122°53'1413.8
2014-Oct-16 06:33N 30°28' E 122°38'1414.2
2014-Oct-16 05:33N 30°32' E 122°23'1211.5
2014-Oct-16 04:33N 30°34' E 122°09'6 6.2
2014-Oct-16 03:33N 30°38' E 122°03'0 0.0
2014-Oct-16 02:33N 30°38' E 122°03'0 0.0
2014-Oct-15 06:32N 30°37' E 122°03'1 0.7
2014-Oct-15 05:30N 30°37' E 122°04'9 9.3
2014-Oct-15 04:33N 30°34' E 122°13'1211.8
2014-Oct-15 03:32N 30°32' E 122°27'1111.0
2014-Oct-15 02:33N 30°30' E 122°39'1111.1
2014-Oct-15 01:33N 30°24' E 122°50'40011.8
2014-Oct-13 15:29N 24°32' E 119°15'5513.8
2014-Oct-13 11:32N 23°59' E 118°28'1313.3
2014-Oct-13 10:32N 23°51' E 118°16'1412.9
2014-Oct-13 09:27N 23°43' E 118°03'1412.4
2014-Oct-13 08:19N 23°34' E 117°52'1113.5
2014-Oct-13 07:32N 23°28' E 117°42'21113.2
2014-Oct-12 15:31N 22°19' E 114°05'53910.5
2014-Oct-10 12:00N 13°30' E 112°18'20717.2 010 / 121006.7 5.4 29.522.227.0
2014-Oct-10 00:00N 10°36' E 110°24'20617.1 350 / 121009.3 5.4 27.021.727.0
2014-Oct-09 12:00N 07°48' E 108°24'20817.3 020 / 41009.610.8 28.022.027.0
2014-Oct-09 00:00N 04°54' E 106°30'26916.4 300 / 71011.0 5.4 28.524.928.0
2014-Oct-08 07:33N 01°13' E 103°56'1010.3
2014-Oct-08 06:33N 01°15' E 103°46'2 1.7
2014-Oct-08 05:33N 01°17' E 103°45'0 0.0
2014-Oct-08 04:32N 01°17' E 103°45'0 0.0
2014-Oct-08 03:32N 01°17' E 103°45'0 0.0
2014-Oct-08 02:32N 01°17' E 103°45'0 0.0
2014-Oct-08 01:32N 01°17' E 103°45'0 0.0
2014-Oct-08 00:32N 01°17' E 103°45'0 0.0
2014-Oct-07 23:32N 01°17' E 103°45'0 0.0
2014-Oct-07 22:32N 01°17' E 103°45'0 0.0
2014-Oct-07 21:32N 01°17' E 103°45'0 0.0
2014-Oct-07 20:32N 01°17' E 103°45'0 0.0
2014-Oct-07 19:32N 01°17' E 103°45'0 0.0
2014-Oct-07 18:32N 01°17' E 103°45'0 0.0
2014-Oct-07 17:32N 01°17' E 103°45'0 0.0
2014-Oct-07 16:32N 01°17' E 103°45'0 0.0
2014-Oct-07 15:32N 01°17' E 103°45'0 0.0
2014-Oct-07 14:32N 01°17' E 103°45'0 0.0
2014-Oct-07 13:32N 01°17' E 103°45'0 0.0
2014-Oct-07 12:32N 01°17' E 103°45'0 0.0
2014-Oct-07 11:32N 01°17' E 103°45'0 0.0
2014-Oct-07 10:32N 01°17' E 103°45'0 0.0
2014-Oct-07 09:32N 01°17' E 103°45'0 0.0
2014-Oct-07 08:32N 01°17' E 103°45'0 0.0
2014-Oct-07 07:33N 01°17' E 103°45'2 2.3
2014-Oct-07 06:33N 01°15' E 103°46'7 6.7
2014-Oct-07 05:33N 01°12' E 103°40'7 6.9
2014-Oct-07 04:33N 01°11' E 103°33'8 7.9
2014-Oct-07 03:33N 01°12' E 103°25'  

Dump ship's entire track history